createdAt,value
2019-06-08T00:00:08.811Z,90.22
2019-06-08T00:01:09.197Z,90.11
2019-06-08T00:02:09.605Z,90.01
2019-06-08T00:03:09.999Z,90.01
2019-06-08T00:04:10.353Z,90.22
2019-06-08T00:05:10.760Z,90.11
2019-06-08T00:06:12.480Z,90.11
2019-06-08T00:07:12.960Z,89.91
2019-06-08T00:08:12.979Z,90.22
2019-06-08T00:09:12.997Z,91.22
2019-06-08T00:10:12.776Z,90.92
2019-06-08T00:11:13.054Z,90.92
2019-06-08T00:12:13.438Z,90.52
2019-06-08T00:13:15.099Z,90.62
2019-06-08T00:14:15.147Z,90.92
2019-06-08T00:15:14.664Z,91.02
2019-06-08T00:16:15.245Z,90.82
2019-06-08T00:17:29.244Z,90.62
2019-06-08T00:18:17.356Z,91.22
2019-06-08T00:19:17.317Z,91.42
2019-06-08T00:20:17.709Z,91.42
2019-06-08T00:21:17.603Z,91.42
2019-06-08T00:22:17.676Z,91.13
2019-06-08T00:23:17.876Z,91.33
2019-06-08T00:24:18.111Z,91.27
2019-06-08T00:25:19.164Z,91.42
2019-06-08T00:26:19.997Z,91.47
2019-06-08T00:27:20.246Z,91.13
2019-06-08T00:28:20.374Z,91.53
2019-06-08T00:29:20.292Z,91.73
2019-06-08T00:30:20.453Z,91.37
2019-06-08T00:31:21.654Z,91.53
2019-06-08T00:32:22.494Z,91.47
2019-06-08T00:33:22.633Z,91.67
2019-06-08T00:34:22.689Z,92.07
2019-06-08T00:35:22.766Z,91.93
2019-06-08T00:36:23.002Z,91.73
2019-06-08T00:37:23.159Z,91.63
2019-06-08T00:38:23.552Z,91.42
2019-06-08T00:39:25.127Z,91.73
2019-06-08T00:40:25.247Z,91.53
2019-06-08T00:41:25.353Z,91.83
2019-06-08T00:42:25.548Z,92.68
2019-06-08T00:43:25.600Z,92.78
2019-06-08T00:44:25.848Z,92.58
2019-06-08T00:45:26.244Z,92.88
2019-06-08T00:46:26.617Z,92.47
2019-06-08T00:47:42.039Z,92.47
2019-06-08T00:48:28.767Z,92.58
2019-06-08T00:49:29.043Z,92.78
2019-06-08T00:50:29.395Z,92.68
2019-06-08T00:51:29.801Z,92.68
2019-06-08T00:52:29.399Z,92.78
2019-06-08T00:53:29.623Z,92.78
2019-06-08T00:54:29.840Z,92.98
2019-06-08T00:55:30.170Z,92.88
2019-06-08T00:56:30.657Z,92.98
2019-06-08T00:57:30.936Z,93.29
2019-06-08T00:58:31.302Z,93.29
2019-06-08T00:59:31.676Z,93.08
2019-06-08T01:00:32.061Z,93.38
2019-06-08T01:01:32.464Z,94.09
2019-06-08T01:02:32.862Z,93.99
2019-06-08T01:03:33.285Z,94.29
2019-06-08T01:04:33.802Z,94.39
2019-06-08T01:05:34.039Z,94.25
2019-06-08T01:06:34.446Z,94.45
2019-06-08T01:07:34.817Z,94.45
2019-06-08T01:08:35.229Z,93.74
2019-06-08T01:09:35.826Z,93.65
2019-06-08T01:10:35.988Z,93.44
2019-06-08T01:11:36.412Z,93.34
2019-06-08T01:12:36.861Z,93.24
2019-06-08T01:13:37.151Z,92.79
2019-06-08T01:14:37.529Z,92.39
2019-06-08T01:15:37.917Z,92.39
2019-06-08T01:16:38.337Z,92.49
2019-06-08T01:17:38.690Z,92.35
2019-06-08T01:18:39.082Z,91.54
2019-06-08T01:19:39.453Z,91.54
2019-06-08T01:20:39.894Z,91.24
2019-06-08T01:21:40.261Z,91.24
2019-06-08T01:22:40.625Z,91.04
2019-06-08T01:23:41.025Z,90.79
2019-06-08T01:24:41.379Z,90.39
2019-06-08T01:25:41.781Z,90.89
2019-06-08T01:26:42.218Z,90.99
2019-06-08T01:27:42.576Z,90.19
2019-06-08T01:28:43.029Z,89.84
2019-06-08T01:29:43.423Z,90.15
2019-06-08T01:30:43.743Z,89.59
2019-06-08T01:31:44.138Z,89.59
2019-06-08T01:32:44.518Z,89.69
2019-06-08T01:33:44.940Z,89.89
2019-06-08T01:34:45.305Z,90.05
2019-06-08T01:35:45.664Z,89.04
2019-06-08T01:36:46.096Z,89.34
2019-06-08T01:37:46.599Z,88.64
2019-06-08T01:38:46.898Z,89.14
2019-06-08T01:39:47.264Z,89.24
2019-06-08T01:40:47.610Z,89.04
2019-06-08T01:41:48.038Z,88.94
2019-06-08T01:42:48.416Z,88.94
2019-06-08T01:43:48.829Z,88.79
2019-06-08T01:44:49.191Z,89.04
2019-06-08T01:45:50.663Z,88.49
2019-06-08T01:47:01.559Z,88.49
2019-06-08T01:47:57.438Z,88.90
2019-06-08T01:48:50.769Z,88.39
2019-06-08T01:49:51.132Z,88.09
2019-06-08T01:50:51.520Z,87.79
2019-06-08T01:51:51.899Z,88.19
2019-06-08T01:52:52.288Z,88.19
2019-06-08T01:53:52.771Z,87.99
2019-06-08T01:54:53.061Z,87.99
2019-06-08T01:55:53.459Z,88.09
2019-06-08T01:56:53.863Z,87.65
2019-06-08T01:57:54.217Z,87.49
2019-06-08T01:58:54.645Z,87.15
2019-06-08T01:59:55.013Z,87.15
2019-06-08T02:00:55.394Z,87.04
2019-06-08T02:01:55.847Z,86.54
2019-06-08T02:02:56.147Z,86.54
2019-06-08T02:03:56.608Z,86.34
2019-06-08T02:04:56.963Z,86.30
2019-06-08T02:05:57.345Z,83.63
2019-06-08T02:06:57.753Z,82.98
2019-06-08T02:07:58.151Z,81.01
2019-06-08T02:08:58.568Z,80.47
2019-06-08T02:09:58.943Z,80.11
2019-06-08T02:10:59.408Z,79.77
2019-06-08T02:11:59.708Z,80.07
2019-06-08T02:13:00.085Z,80.11
2019-06-08T02:14:00.521Z,80.61
2019-06-08T02:15:00.860Z,80.21
2019-06-08T02:16:01.239Z,80.55
2019-06-08T02:17:01.674Z,81.05
2019-06-08T02:18:02.032Z,81.15
2019-06-08T02:19:02.569Z,80.85
2019-06-08T02:20:02.796Z,80.29
2019-06-08T02:21:03.186Z,79.68
2019-06-08T02:22:03.622Z,79.58
2019-06-08T02:23:03.978Z,79.58
2019-06-08T02:24:04.416Z,79.52
2019-06-08T02:25:04.765Z,79.08
2019-06-08T02:26:05.118Z,78.91
2019-06-08T02:27:05.603Z,78.91
2019-06-08T02:28:05.908Z,79.42
2019-06-08T02:29:06.365Z,78.51
2019-06-08T02:30:06.709Z,78.81
2019-06-08T02:31:07.054Z,79.11
2019-06-08T02:32:07.506Z,78.61
2019-06-08T02:33:07.869Z,79.05
2019-06-08T02:34:08.292Z,78.85
2019-06-08T02:35:08.929Z,79.36
2019-06-08T02:36:09.015Z,78.55
2019-06-08T02:37:09.395Z,79.36
2019-06-08T02:38:09.786Z,78.65
2019-06-08T02:39:10.202Z,78.79
2019-06-08T02:40:10.585Z,79.36
2019-06-08T02:41:15.663Z,78.75
2019-06-08T02:42:11.375Z,78.96
2019-06-08T02:43:11.788Z,78.79
2019-06-08T02:44:12.156Z,78.69
2019-06-08T02:45:12.545Z,78.89
2019-06-08T02:46:13.144Z,78.59
2019-06-08T02:47:16.165Z,78.39
2019-06-08T02:48:13.695Z,78.08
2019-06-08T02:49:14.082Z,78.69
2019-06-08T02:50:14.472Z,78.39
2019-06-08T02:51:14.882Z,78.39
2019-06-08T02:52:15.363Z,77.58
2019-06-08T02:53:15.635Z,76.97
2019-06-08T02:54:16.017Z,77.11
2019-06-08T02:55:16.420Z,77.21
2019-06-08T02:56:16.807Z,77.51
2019-06-08T02:57:17.208Z,78.02
2019-06-08T02:58:17.587Z,78.83
2019-06-08T02:59:17.979Z,78.22
2019-06-08T03:00:18.493Z,78.12
2019-06-08T03:01:18.747Z,78.42
2019-06-08T03:02:19.161Z,78.42
2019-06-08T03:03:19.521Z,78.76
2019-06-08T03:04:19.930Z,77.92
2019-06-08T03:05:20.296Z,78.32
2019-06-08T03:06:20.692Z,77.82
2019-06-08T03:07:21.100Z,77.51
2019-06-08T03:08:21.519Z,78.22
2019-06-08T03:09:21.873Z,77.82
2019-06-08T03:10:22.295Z,77.21
2019-06-08T03:11:22.647Z,77.21
2019-06-08T03:12:23.027Z,77.01
2019-06-08T03:13:23.394Z,77.11
2019-06-08T03:14:23.801Z,77.31
2019-06-08T03:15:24.189Z,77.11
2019-06-08T03:16:24.615Z,77.01
2019-06-08T03:17:24.932Z,76.71
2019-06-08T03:18:25.314Z,77.42
2019-06-08T03:19:25.883Z,77.11
2019-06-08T03:20:26.109Z,76.91
2019-06-08T03:21:26.485Z,76.81
2019-06-08T03:22:26.892Z,76.91
2019-06-08T03:23:27.238Z,77.21
2019-06-08T03:24:27.702Z,77.01
2019-06-08T03:25:28.130Z,77.11
2019-06-08T03:26:28.425Z,77.62
2019-06-08T03:27:28.815Z,77.11
2019-06-08T03:28:29.185Z,77.51
2019-06-08T03:29:29.614Z,78.02
2019-06-08T03:30:29.998Z,78.02
2019-06-08T03:31:30.366Z,78.22
2019-06-08T03:32:30.763Z,77.82
2019-06-08T03:33:34.568Z,77.82
2019-06-08T03:34:34.834Z,76.04
2019-06-08T03:35:35.285Z,75.63
2019-06-08T03:36:35.236Z,74.52
2019-06-08T03:37:35.614Z,74.29
2019-06-08T03:38:33.687Z,74.12
2019-06-08T03:39:35.113Z,74.39
2019-06-08T03:40:33.979Z,73.62
2019-06-08T03:41:36.132Z,73.01
2019-06-08T03:42:34.637Z,72.61
2019-06-08T03:43:35.315Z,71.80
2019-06-08T03:44:36.158Z,71.70
2019-06-08T03:45:36.336Z,72.00
2019-06-08T03:46:36.348Z,73.01
2019-06-08T03:47:37.106Z,71.80
2019-06-08T03:48:37.181Z,71.70
2019-06-08T03:49:42.816Z,72.61
2019-06-08T03:50:39.631Z,74.02
2019-06-08T03:51:40.863Z,74.93
2019-06-08T03:52:39.977Z,75.23
2019-06-08T03:53:40.012Z,76.28
2019-06-08T03:54:40.693Z,76.88
2019-06-08T03:55:40.334Z,76.84
2019-06-08T03:56:40.183Z,77.59
2019-06-08T03:57:41.894Z,78.19
2019-06-08T03:58:42.578Z,77.22
2019-06-08T03:59:42.774Z,77.22
2019-06-08T04:00:42.402Z,77.76
2019-06-08T04:01:43.827Z,77.36
2019-06-08T04:02:44.102Z,78.77
2019-06-08T04:03:43.797Z,78.91
2019-06-08T04:04:43.710Z,79.92
2019-06-08T04:05:44.449Z,79.92
2019-06-08T04:06:45.592Z,80.57
2019-06-08T04:07:46.381Z,81.13
2019-06-08T04:08:44.878Z,81.88
2019-06-08T04:09:45.938Z,79.75
2019-06-08T04:10:46.790Z,78.85
2019-06-08T04:11:46.699Z,79.05
2019-06-08T04:12:46.327Z,79.55
2019-06-08T04:13:47.170Z,79.55
2019-06-08T04:14:47.157Z,79.55
2019-06-08T04:15:47.442Z,79.86
2019-06-08T04:16:47.798Z,80.26
2019-06-08T04:17:48.177Z,80.06
2019-06-08T04:18:50.252Z,79.75
2019-06-08T04:20:08.979Z,81.23
2019-06-08T04:20:51.476Z,79.41
2019-06-08T04:21:50.616Z,79.66
2019-06-08T04:22:50.580Z,79.25
2019-06-08T04:23:50.781Z,78.34
2019-06-08T04:24:50.901Z,79.41
2019-06-08T04:25:51.522Z,79.55
2019-06-08T04:26:51.669Z,79.52
2019-06-08T04:27:52.051Z,79.41
2019-06-08T04:28:52.470Z,79.96
2019-06-08T04:29:52.866Z,79.66
2019-06-08T04:30:53.238Z,79.15
2019-06-08T04:31:53.595Z,80.43
2019-06-08T04:32:53.986Z,80.73
2019-06-08T04:33:54.405Z,80.63
2019-06-08T04:34:54.800Z,80.02
2019-06-08T04:35:55.153Z,80.63
2019-06-08T04:36:55.571Z,80.53
2019-06-08T04:37:55.952Z,81.03
2019-06-08T04:38:56.400Z,80.53
2019-06-08T04:39:56.824Z,80.12
2019-06-08T04:40:57.099Z,81.34
2019-06-08T04:41:57.520Z,80.73
2019-06-08T04:42:57.903Z,80.93
2019-06-08T04:43:58.288Z,80.08
2019-06-08T04:44:58.689Z,79.58
2019-06-08T04:45:59.048Z,80.19
2019-06-08T04:46:59.438Z,79.79
2019-06-08T04:47:59.927Z,80.19
2019-06-08T04:49:00.221Z,80.39
2019-06-08T04:50:17.444Z,78.88
2019-06-08T04:51:01.979Z,78.97
2019-06-08T04:52:01.366Z,77.46
2019-06-08T04:53:01.779Z,77.36
2019-06-08T04:54:02.156Z,77.56
2019-06-08T04:55:02.547Z,77.97
2019-06-08T04:56:02.999Z,77.66
2019-06-08T04:57:03.295Z,77.36
2019-06-08T04:58:03.686Z,77.56
2019-06-08T04:59:04.099Z,77.53
2019-06-08T05:00:11.763Z,77.46
2019-06-08T05:01:05.843Z,76.75
2019-06-08T05:02:05.245Z,77.26
2019-06-08T05:03:05.600Z,76.65
2019-06-08T05:04:06.105Z,75.84
2019-06-08T05:05:06.428Z,75.84
2019-06-08T05:06:06.794Z,75.60
2019-06-08T05:07:07.187Z,75.00
2019-06-08T05:08:07.581Z,75.71
2019-06-08T05:09:07.943Z,75.77
2019-06-08T05:10:08.340Z,74.96
2019-06-08T05:11:08.725Z,74.12
2019-06-08T05:12:09.178Z,73.82
2019-06-08T05:13:09.559Z,74.32
2019-06-08T05:14:09.929Z,74.39
2019-06-08T05:15:10.303Z,73.28
2019-06-08T05:16:10.682Z,71.87
2019-06-08T05:17:11.081Z,71.26
2019-06-08T05:18:11.457Z,71.17
2019-06-08T05:19:11.861Z,70.76
2019-06-08T05:20:12.268Z,70.76
2019-06-08T05:21:12.667Z,70.36
2019-06-08T05:22:13.021Z,71.06
2019-06-08T05:23:13.391Z,70.86
2019-06-08T05:24:13.801Z,69.55
2019-06-08T05:25:14.175Z,69.72
2019-06-08T05:26:14.544Z,69.92
2019-06-08T05:27:14.966Z,70.02
2019-06-08T05:28:15.337Z,69.62
2019-06-08T05:29:15.935Z,69.69
2019-06-08T05:30:16.109Z,69.21
2019-06-08T05:31:16.499Z,69.59
2019-06-08T05:32:16.911Z,69.89
2019-06-08T05:33:17.289Z,69.82
2019-06-08T05:34:17.676Z,68.51
2019-06-08T05:35:18.123Z,68.81
2019-06-08T05:36:18.434Z,68.81
2019-06-08T05:37:18.890Z,68.81
2019-06-08T05:38:19.216Z,68.91
2019-06-08T05:39:19.604Z,68.31
2019-06-08T05:40:20.020Z,66.90
2019-06-08T05:41:23.798Z,67.50
2019-06-08T05:42:20.790Z,67.91
2019-06-08T05:43:21.155Z,68.21
2019-06-08T05:44:21.561Z,68.08
2019-06-08T05:45:22.089Z,68.18
2019-06-08T05:46:22.325Z,67.17
2019-06-08T05:47:22.741Z,67.68
2019-06-08T05:48:23.096Z,67.17
2019-06-08T05:49:23.577Z,67.27
2019-06-08T05:50:23.946Z,67.57
2019-06-08T05:51:24.295Z,66.87
2019-06-08T05:52:24.697Z,67.07
2019-06-08T05:53:25.090Z,67.47
2019-06-08T05:54:25.500Z,67.47
2019-06-08T05:55:25.899Z,67.27
2019-06-08T05:56:26.230Z,67.57
2019-06-08T05:57:26.639Z,67.57
2019-06-08T05:58:27.004Z,66.67
2019-06-08T05:59:27.389Z,67.07
2019-06-08T06:00:27.825Z,66.87
2019-06-08T06:01:28.173Z,67.17
2019-06-08T06:02:28.706Z,65.86
2019-06-08T06:03:28.921Z,66.83
2019-06-08T06:04:29.323Z,66.67
2019-06-08T06:05:30.041Z,66.63
2019-06-08T06:06:30.132Z,65.83
2019-06-08T06:07:30.527Z,66.23
2019-06-08T06:08:30.894Z,66.23
2019-06-08T06:09:31.297Z,65.83
2019-06-08T06:10:31.758Z,65.12
2019-06-08T06:11:32.048Z,64.22
2019-06-08T06:12:32.458Z,64.52
2019-06-08T06:13:32.819Z,64.92
2019-06-08T06:14:36.790Z,64.82
2019-06-08T06:15:33.622Z,63.92
2019-06-08T06:16:33.971Z,64.12
2019-06-08T06:17:34.420Z,64.12
2019-06-08T06:18:34.832Z,63.42
2019-06-08T06:19:35.141Z,63.31
2019-06-08T06:20:35.573Z,63.21
2019-06-08T06:21:35.907Z,62.88
2019-06-08T06:22:36.325Z,62.98
2019-06-08T06:23:36.707Z,62.88
2019-06-08T06:24:37.108Z,62.95
2019-06-08T06:25:37.513Z,61.34
2019-06-08T06:26:37.907Z,61.71
2019-06-08T06:27:38.314Z,61.31
2019-06-08T06:28:38.703Z,60.68
2019-06-08T06:29:39.035Z,59.95
2019-06-08T06:30:39.461Z,58.75
2019-06-08T06:31:39.820Z,59.01
2019-06-08T06:32:41.646Z,58.29
2019-06-08T06:33:41.852Z,57.68
2019-06-08T06:34:41.879Z,56.98
2019-06-08T06:35:41.674Z,57.21
2019-06-08T06:36:41.798Z,56.98
2019-06-08T06:37:42.127Z,56.98
2019-06-08T06:38:43.723Z,56.48
2019-06-08T06:39:43.962Z,56.38
2019-06-08T06:40:43.950Z,56.98
2019-06-08T06:41:44.054Z,56.48
2019-06-08T06:42:44.085Z,56.08
2019-06-08T06:43:45.823Z,55.78
2019-06-08T06:44:45.702Z,56.01
2019-06-08T06:45:46.079Z,55.03
2019-06-08T06:46:46.105Z,56.06
2019-06-08T06:47:46.422Z,55.86
2019-06-08T06:48:46.403Z,57.06
2019-06-08T06:49:46.810Z,57.17
2019-06-08T06:50:48.167Z,56.43
2019-06-08T06:51:48.407Z,55.43
2019-06-08T06:52:48.886Z,56.13
2019-06-08T06:53:48.814Z,56.34
2019-06-08T06:54:48.979Z,54.80
2019-06-08T06:55:49.169Z,53.72
2019-06-08T06:56:49.521Z,55.03
2019-06-08T06:57:51.414Z,54.72
2019-06-08T06:58:51.782Z,54.35
2019-06-08T06:59:51.961Z,54.85
2019-06-08T07:00:51.544Z,55.46
2019-06-08T07:01:53.664Z,55.18
2019-06-08T07:02:53.912Z,55.18
2019-06-08T07:03:52.255Z,55.76
2019-06-08T07:04:52.621Z,56.16
2019-06-08T07:05:54.121Z,54.83
2019-06-08T07:06:54.367Z,54.20
2019-06-08T07:07:54.473Z,53.70
2019-06-08T07:08:54.591Z,52.97
2019-06-08T07:09:54.962Z,51.94
2019-06-08T07:10:55.236Z,52.42
2019-06-08T07:11:56.467Z,51.49
2019-06-08T07:12:55.723Z,51.39
2019-06-08T07:13:56.133Z,50.76
2019-06-08T07:14:56.524Z,49.37
2019-06-08T07:15:58.125Z,49.46
2019-06-08T07:16:58.245Z,49.07
2019-06-08T07:17:58.613Z,49.16
2019-06-08T07:18:58.792Z,50.19
2019-06-08T07:19:58.867Z,50.26
2019-06-08T07:20:58.879Z,49.89
2019-06-08T07:21:59.213Z,50.29
2019-06-08T07:22:59.616Z,50.26
2019-06-08T07:24:00.030Z,50.76
2019-06-08T07:25:00.462Z,49.76
2019-06-08T07:26:00.815Z,49.96
2019-06-08T07:27:01.151Z,49.37
2019-06-08T07:28:01.541Z,50.26
2019-06-08T07:29:01.959Z,50.26
2019-06-08T07:30:02.483Z,50.76
2019-06-08T07:31:02.756Z,50.37
2019-06-08T07:32:03.107Z,50.67
2019-06-08T07:33:03.514Z,51.17
2019-06-08T07:34:03.891Z,50.57
2019-06-08T07:35:04.327Z,49.74
2019-06-08T07:36:05.761Z,51.27
2019-06-08T07:37:05.054Z,50.34
2019-06-08T07:38:05.459Z,50.34
2019-06-08T07:39:05.844Z,50.14
2019-06-08T07:40:06.206Z,50.14
2019-06-08T07:41:06.928Z,50.67
2019-06-08T07:42:07.028Z,50.44
2019-06-08T07:43:09.257Z,50.34
2019-06-08T07:44:08.032Z,50.44
2019-06-08T07:45:08.158Z,50.82
2019-06-08T07:46:08.578Z,50.82
2019-06-08T07:47:08.966Z,49.52
2019-06-08T07:48:09.373Z,50.32
2019-06-08T07:49:09.781Z,50.34
2019-06-08T07:50:10.240Z,50.74
2019-06-08T07:51:10.532Z,50.84
2019-06-08T07:52:11.113Z,50.24
2019-06-08T07:53:11.309Z,49.87
2019-06-08T07:54:11.715Z,49.79
2019-06-08T07:55:12.089Z,50.39
2019-06-08T07:56:12.496Z,50.69
2019-06-08T07:57:12.876Z,50.59
2019-06-08T07:58:13.387Z,50.42
2019-06-08T07:59:14.928Z,51.21
2019-06-08T08:00:14.043Z,51.12
2019-06-08T08:01:14.430Z,50.81
2019-06-08T08:02:14.831Z,51.21
2019-06-08T08:03:15.206Z,50.84
2019-06-08T08:04:15.612Z,51.84
2019-06-08T08:05:15.983Z,50.84
2019-06-08T08:06:16.420Z,51.74
2019-06-08T08:07:16.773Z,51.14
2019-06-08T08:08:17.174Z,52.24
2019-06-08T08:09:17.561Z,51.14
2019-06-08T08:10:17.990Z,51.74
2019-06-08T08:11:18.335Z,51.34
2019-06-08T08:12:18.730Z,51.44
2019-06-08T08:13:19.111Z,52.55
2019-06-08T08:14:19.610Z,50.44
2019-06-08T08:15:19.899Z,51.04
2019-06-08T08:16:20.441Z,50.84
2019-06-08T08:17:20.650Z,50.11
2019-06-08T08:18:21.008Z,50.31
2019-06-08T08:19:21.425Z,50.42
2019-06-08T08:20:21.814Z,50.19
2019-06-08T08:21:25.945Z,50.39
2019-06-08T08:22:25.907Z,49.19
2019-06-08T08:23:23.046Z,48.99
2019-06-08T08:24:23.362Z,49.08
2019-06-08T08:25:23.746Z,49.29
2019-06-08T08:26:24.152Z,49.91
2019-06-08T08:27:24.544Z,49.23
2019-06-08T08:28:24.911Z,49.84
2019-06-08T08:29:25.358Z,49.93
2019-06-08T08:30:28.266Z,50.76
2019-06-08T08:31:27.754Z,51.06
2019-06-08T08:32:28.242Z,51.46
2019-06-08T08:33:27.561Z,50.66
2019-06-08T08:34:28.377Z,50.89
2019-06-08T08:35:28.012Z,51.19
2019-06-08T08:36:28.808Z,50.79
2019-06-08T08:37:28.427Z,51.51
2019-06-08T08:38:28.804Z,51.04
2019-06-08T08:39:29.303Z,51.24
2019-06-08T08:40:29.555Z,51.42
2019-06-08T08:41:29.979Z,51.81
2019-06-08T08:42:30.375Z,51.69
2019-06-08T08:43:30.731Z,51.51
2019-06-08T08:44:31.148Z,51.31
2019-06-08T08:45:31.499Z,51.51
2019-06-08T08:46:31.905Z,51.11
2019-06-08T08:47:32.333Z,50.59
2019-06-08T08:48:32.668Z,51.59
2019-06-08T08:49:33.066Z,51.49
2019-06-08T08:50:33.453Z,51.19
2019-06-08T08:51:33.866Z,51.69
2019-06-08T08:52:37.233Z,51.37
2019-06-08T08:53:37.427Z,51.26
2019-06-08T08:54:37.548Z,50.86
2019-06-08T08:55:37.821Z,51.44
2019-06-08T08:56:38.150Z,51.34
2019-06-08T08:57:38.099Z,50.94
2019-06-08T08:58:38.093Z,50.86
2019-06-08T08:59:38.114Z,49.86
2019-06-08T09:00:40.831Z,49.28
2019-06-08T09:01:38.207Z,50.11
2019-06-08T09:02:38.177Z,50.81
2019-06-08T09:03:39.381Z,50.61
2019-06-08T09:04:39.062Z,51.34
2019-06-08T09:05:39.350Z,51.01
2019-06-08T09:06:39.731Z,51.01
2019-06-08T09:07:40.120Z,51.61
2019-06-08T09:08:40.474Z,50.61
2019-06-08T09:09:40.868Z,50.48
2019-06-08T09:10:41.293Z,50.59
2019-06-08T09:11:41.697Z,50.68
2019-06-08T09:12:42.181Z,50.66
2019-06-08T09:13:42.408Z,48.96
2019-06-08T09:14:42.809Z,50.44
2019-06-08T09:15:43.230Z,50.21
2019-06-08T09:16:43.633Z,49.84
2019-06-08T09:17:44.011Z,50.21
2019-06-08T09:18:44.380Z,50.44
2019-06-08T09:19:44.769Z,51.14
2019-06-08T09:20:47.737Z,50.74
2019-06-08T09:21:48.047Z,50.34
2019-06-08T09:22:53.958Z,50.36
2019-06-08T09:23:48.508Z,49.66
2019-06-08T09:24:48.504Z,50.06
2019-06-08T09:25:48.084Z,50.56
2019-06-08T09:26:47.732Z,49.76
2019-06-08T09:27:48.246Z,50.36
2019-06-08T09:28:48.335Z,50.79
2019-06-08T09:29:48.639Z,50.18
2019-06-08T09:30:49.058Z,50.68
2019-06-08T09:31:49.452Z,51.89
2019-06-08T09:32:49.830Z,50.79
2019-06-08T09:34:04.055Z,50.89
2019-06-08T09:34:52.953Z,51.09
2019-06-08T09:35:53.028Z,51.09
2019-06-08T09:36:52.583Z,50.18
2019-06-08T09:37:53.133Z,50.59
2019-06-08T09:38:53.138Z,50.09
2019-06-08T09:39:53.838Z,49.76
2019-06-08T09:40:53.398Z,49.58
2019-06-08T09:41:53.809Z,49.66
2019-06-08T09:42:55.883Z,49.33
2019-06-08T09:43:55.570Z,49.13
2019-06-08T09:44:55.474Z,48.51
2019-06-08T09:45:55.343Z,47.88
2019-06-08T09:46:58.402Z,47.19
2019-06-08T09:47:59.605Z,47.19
2019-06-08T09:48:58.542Z,47.08
2019-06-08T09:49:58.765Z,47.49
2019-06-08T09:50:59.386Z,46.08
2019-06-08T09:51:58.788Z,47.28
2019-06-08T09:53:13.124Z,46.18
2019-06-08T09:54:00.826Z,46.28
2019-06-08T09:54:59.246Z,46.68
2019-06-08T09:56:01.030Z,47.11
2019-06-08T09:57:02.130Z,47.28
2019-06-08T09:58:04.502Z,47.41
2019-06-08T09:59:02.779Z,47.19
2019-06-08T10:00:02.562Z,47.20
2019-06-08T10:01:02.897Z,47.61
2019-06-08T10:02:05.643Z,47.91
2019-06-08T10:03:03.028Z,46.81
2019-06-08T10:04:02.784Z,48.23
2019-06-08T10:05:04.020Z,47.93
2019-06-08T10:06:05.508Z,48.03
2019-06-08T10:07:05.286Z,47.81
2019-06-08T10:08:04.226Z,47.91
2019-06-08T10:09:04.824Z,47.91
2019-06-08T10:10:04.803Z,47.33
2019-06-08T10:11:05.939Z,48.16
2019-06-08T10:12:06.406Z,47.63
2019-06-08T10:13:09.198Z,48.43
2019-06-08T10:14:09.225Z,48.23
2019-06-08T10:15:08.018Z,48.11
2019-06-08T10:16:09.361Z,47.41
2019-06-08T10:17:08.819Z,47.78
2019-06-08T10:18:08.128Z,47.36
2019-06-08T10:19:10.221Z,47.46
2019-06-08T10:20:09.654Z,46.36
2019-06-08T10:21:09.408Z,45.86
2019-06-08T10:22:09.809Z,45.86
2019-06-08T10:23:26.864Z,46.46
2019-06-08T10:24:10.756Z,46.56
2019-06-08T10:25:11.049Z,45.66
2019-06-08T10:26:10.938Z,45.56
2019-06-08T10:27:11.790Z,46.36
2019-06-08T10:28:13.984Z,45.96
2019-06-08T10:29:11.678Z,46.04
2019-06-08T10:30:12.047Z,46.24
2019-06-08T10:31:12.449Z,46.04
2019-06-08T10:32:12.873Z,45.94
2019-06-08T10:33:13.222Z,46.34
2019-06-08T10:34:13.629Z,46.24
2019-06-08T10:35:14.116Z,45.84
2019-06-08T10:36:14.383Z,46.14
2019-06-08T10:37:14.786Z,45.64
2019-06-08T10:38:17.887Z,46.06
2019-06-08T10:39:15.575Z,46.18
2019-06-08T10:40:18.554Z,46.68
2019-06-08T10:41:19.121Z,46.38
2019-06-08T10:42:17.927Z,46.78
2019-06-08T10:43:17.492Z,46.88
2019-06-08T10:44:18.065Z,46.78
2019-06-08T10:45:18.328Z,47.28
2019-06-08T10:46:20.500Z,46.98
2019-06-08T10:47:18.629Z,46.28
2019-06-08T10:48:19.031Z,46.78
2019-06-08T10:49:19.485Z,46.48
2019-06-08T10:50:19.795Z,46.46
2019-06-08T10:51:20.290Z,46.76
2019-06-08T10:52:20.616Z,45.86
2019-06-08T10:53:21.013Z,46.34
2019-06-08T10:54:21.401Z,46.24
2019-06-08T10:55:21.767Z,45.81
2019-06-08T10:56:22.159Z,45.21
2019-06-08T10:57:22.539Z,45.42
2019-06-08T10:58:22.932Z,45.72
2019-06-08T10:59:23.574Z,45.69
2019-06-08T11:00:24.512Z,44.79
2019-06-08T11:01:24.102Z,44.87
2019-06-08T11:02:24.491Z,44.57
2019-06-08T11:03:24.883Z,44.75
2019-06-08T11:04:25.306Z,44.83
2019-06-08T11:05:27.869Z,44.63
2019-06-08T11:06:26.070Z,43.03
2019-06-08T11:07:27.918Z,42.83
2019-06-08T11:08:27.382Z,42.73
2019-06-08T11:09:28.326Z,42.83
2019-06-08T11:10:27.603Z,42.43
2019-06-08T11:11:28.401Z,42.54
2019-06-08T11:12:28.456Z,42.95
2019-06-08T11:13:28.762Z,43.18
2019-06-08T11:14:29.157Z,42.68
2019-06-08T11:15:30.037Z,42.68
2019-06-08T11:16:30.009Z,42.76
2019-06-08T11:17:30.286Z,42.65
2019-06-08T11:18:30.695Z,42.97
2019-06-08T11:19:31.104Z,42.76
2019-06-08T11:20:31.543Z,42.46
2019-06-08T11:21:31.859Z,43.25
2019-06-08T11:22:32.261Z,43.33
2019-06-08T11:23:32.660Z,42.46
2019-06-08T11:24:33.078Z,42.95
2019-06-08T11:25:33.428Z,42.15
2019-06-08T11:26:33.807Z,41.85
2019-06-08T11:27:34.209Z,42.18
2019-06-08T11:28:34.587Z,42.18
2019-06-08T11:29:34.971Z,42.18
2019-06-08T11:30:38.169Z,41.14
2019-06-08T11:31:35.766Z,41.63
2019-06-08T11:32:38.195Z,40.22
2019-06-08T11:33:38.749Z,40.42
2019-06-08T11:34:37.509Z,41.09
2019-06-08T11:35:38.287Z,39.56
2019-06-08T11:36:39.296Z,40.14
2019-06-08T11:37:38.742Z,38.54
2019-06-08T11:38:38.479Z,39.14
2019-06-08T11:39:38.897Z,39.04
2019-06-08T11:40:39.264Z,38.45
2019-06-08T11:41:39.738Z,38.65
2019-06-08T11:42:40.060Z,38.25
2019-06-08T11:43:41.377Z,38.82
2019-06-08T11:44:40.820Z,37.83
2019-06-08T11:45:41.183Z,36.55
2019-06-08T11:46:42.539Z,35.77
2019-06-08T11:47:41.984Z,35.68
2019-06-08T11:48:42.383Z,35.68
2019-06-08T11:49:42.869Z,35.68
2019-06-08T11:50:43.153Z,33.28
2019-06-08T11:51:43.552Z,33.58
2019-06-08T11:52:43.963Z,33.38
2019-06-08T11:53:44.309Z,34.08
2019-06-08T11:54:44.715Z,33.98
2019-06-08T11:55:45.098Z,34.16
2019-06-08T11:56:48.080Z,32.78
2019-06-08T11:57:48.722Z,33.10
2019-06-08T11:58:48.452Z,32.70
2019-06-08T11:59:48.415Z,32.60
2019-06-08T12:00:48.868Z,32.10
2019-06-08T12:01:50.057Z,32.92
2019-06-08T12:02:48.484Z,33.80
2019-06-08T12:03:48.361Z,34.30
2019-06-08T12:04:48.588Z,33.90
2019-06-08T12:05:50.904Z,34.39
2019-06-08T12:06:49.323Z,32.90
2019-06-08T12:07:49.726Z,32.92
2019-06-08T12:08:50.097Z,33.01
2019-06-08T12:09:50.519Z,33.00
2019-06-08T12:10:50.898Z,33.90
2019-06-08T12:11:51.275Z,33.40
2019-06-08T12:12:51.675Z,32.90
2019-06-08T12:13:52.057Z,32.92
2019-06-08T12:14:52.505Z,33.50
2019-06-08T12:15:52.859Z,33.10
2019-06-08T12:16:53.237Z,33.40
2019-06-08T12:17:53.639Z,33.00
2019-06-08T12:18:54.006Z,33.08
2019-06-08T12:19:54.386Z,32.89
2019-06-08T12:20:54.851Z,33.86
2019-06-08T12:21:57.841Z,32.57
2019-06-08T12:22:55.745Z,32.57
2019-06-08T12:23:55.949Z,32.77
2019-06-08T12:24:56.348Z,32.77
2019-06-08T12:25:56.790Z,32.37
2019-06-08T12:27:00.150Z,32.37
2019-06-08T12:27:58.643Z,31.27
2019-06-08T12:29:01.035Z,30.77
2019-06-08T12:29:58.742Z,31.69
2019-06-08T12:31:00.826Z,31.99
2019-06-08T12:32:00.441Z,30.68
2019-06-08T12:32:59.511Z,30.98
2019-06-08T12:33:59.879Z,31.07
2019-06-08T12:35:00.329Z,30.18
2019-06-08T12:36:00.720Z,31.57
2019-06-08T12:37:01.041Z,30.38
2019-06-08T12:38:01.448Z,31.27
2019-06-08T12:39:02.096Z,31.27
2019-06-08T12:40:02.189Z,31.07
2019-06-08T12:41:02.613Z,32.27
2019-06-08T12:42:02.951Z,32.77
2019-06-08T12:43:03.370Z,32.87
2019-06-08T12:44:03.742Z,31.97
2019-06-08T12:45:04.133Z,32.57
2019-06-08T12:46:04.552Z,32.87
2019-06-08T12:47:04.954Z,32.57
2019-06-08T12:48:05.331Z,32.77
2019-06-08T12:49:05.687Z,32.39
2019-06-08T12:50:08.437Z,32.18
2019-06-08T12:51:10.015Z,32.78
2019-06-08T12:52:08.249Z,32.30
2019-06-08T12:53:12.405Z,32.92
2019-06-08T12:54:10.799Z,33.00
2019-06-08T12:55:12.513Z,33.00
2019-06-08T12:56:11.526Z,33.40
2019-06-08T12:57:12.189Z,33.88